createdAt,value
2019-03-09T00:00:52.600Z,6.36
2019-03-09T00:01:52.769Z,6.35
2019-03-09T00:02:52.993Z,6.26
2019-03-09T00:03:53.182Z,6.32
2019-03-09T00:04:53.384Z,6.47
2019-03-09T00:05:53.558Z,6.54
2019-03-09T00:06:53.754Z,6.60
2019-03-09T00:07:53.952Z,6.54
2019-03-09T00:08:54.158Z,6.62
2019-03-09T00:09:54.362Z,6.53
2019-03-09T00:10:54.549Z,6.54
2019-03-09T00:11:54.761Z,6.60
2019-03-09T00:12:54.927Z,6.53
2019-03-09T00:13:55.187Z,6.67
2019-03-09T00:14:55.263Z,6.62
2019-03-09T00:15:55.491Z,6.82
2019-03-09T00:16:55.674Z,6.75
2019-03-09T00:17:55.860Z,6.77
2019-03-09T00:18:56.045Z,6.77
2019-03-09T00:19:56.251Z,6.83
2019-03-09T00:20:56.458Z,6.83
2019-03-09T00:21:56.662Z,6.74
2019-03-09T00:22:56.847Z,6.78
2019-03-09T00:23:57.045Z,6.82
2019-03-09T00:24:57.241Z,6.78
2019-03-09T00:25:57.426Z,6.75
2019-03-09T00:26:57.629Z,6.75
2019-03-09T00:27:57.816Z,6.77
2019-03-09T00:28:58.013Z,6.78
2019-03-09T00:29:58.212Z,6.78
2019-03-09T00:30:58.422Z,6.80
2019-03-09T00:31:58.499Z,6.97
2019-03-09T00:32:59.694Z,6.95
2019-03-09T00:33:58.847Z,6.89
2019-03-09T00:34:59.110Z,7.00
2019-03-09T00:35:59.204Z,7.00
2019-03-09T00:36:59.398Z,7.03
2019-03-09T00:37:59.601Z,7.04
2019-03-09T00:38:59.800Z,6.97
2019-03-09T00:39:59.970Z,7.07
2019-03-09T00:41:00.220Z,7.08
2019-03-09T00:42:00.334Z,7.08
2019-03-09T00:43:00.585Z,7.13
2019-03-09T00:44:00.818Z,7.08
2019-03-09T00:45:01.055Z,7.07
2019-03-09T00:46:01.279Z,7.07
2019-03-09T00:47:01.510Z,7.19
2019-03-09T00:48:01.788Z,7.29
2019-03-09T00:49:01.883Z,7.25
2019-03-09T00:50:02.093Z,7.25
2019-03-09T00:51:02.275Z,7.14
2019-03-09T00:52:02.514Z,7.11
2019-03-09T00:53:02.981Z,6.96
2019-03-09T00:54:03.035Z,7.03
2019-03-09T00:55:03.086Z,7.01
2019-03-09T00:56:03.256Z,6.95
2019-03-09T00:57:03.440Z,6.92
2019-03-09T00:58:03.619Z,6.96
2019-03-09T00:59:03.797Z,6.82
2019-03-09T01:00:03.978Z,6.85
2019-03-09T01:01:04.161Z,6.85
2019-03-09T01:02:04.366Z,6.83
2019-03-09T01:03:04.605Z,6.85
2019-03-09T01:04:04.700Z,6.80
2019-03-09T01:05:04.911Z,6.78
2019-03-09T01:06:05.029Z,6.80
2019-03-09T01:07:05.234Z,6.72
2019-03-09T01:08:05.561Z,6.74
2019-03-09T01:09:05.624Z,6.83
2019-03-09T01:10:05.827Z,6.80
2019-03-09T01:11:06.040Z,6.74
2019-03-09T01:12:06.320Z,6.78
2019-03-09T01:13:06.382Z,6.78
2019-03-09T01:14:06.630Z,6.77
2019-03-09T01:15:06.809Z,6.75
2019-03-09T01:16:07.013Z,6.75
2019-03-09T01:17:07.415Z,6.74
2019-03-09T01:18:07.337Z,6.77
2019-03-09T01:19:07.553Z,6.74
2019-03-09T01:20:07.642Z,6.71
2019-03-09T01:21:07.840Z,6.72
2019-03-09T01:22:08.041Z,6.80
2019-03-09T01:23:08.249Z,6.74
2019-03-09T01:24:08.443Z,6.64
2019-03-09T01:25:08.657Z,6.60
2019-03-09T01:26:08.931Z,6.65
2019-03-09T01:27:08.980Z,6.70
2019-03-09T01:28:09.161Z,6.80
2019-03-09T01:29:09.409Z,6.70
2019-03-09T01:30:09.622Z,6.71
2019-03-09T01:31:09.837Z,6.67
2019-03-09T01:32:10.047Z,6.60
2019-03-09T01:33:10.358Z,6.70
2019-03-09T01:34:10.436Z,6.52
2019-03-09T01:35:10.635Z,6.49
2019-03-09T01:36:10.847Z,6.49
2019-03-09T01:37:11.580Z,6.44
2019-03-09T01:38:11.273Z,6.39
2019-03-09T01:39:11.545Z,6.43
2019-03-09T01:40:11.603Z,6.28
2019-03-09T01:41:11.813Z,6.43
2019-03-09T01:42:12.037Z,6.46
2019-03-09T01:43:12.220Z,6.35
2019-03-09T01:44:12.400Z,6.32
2019-03-09T01:45:12.572Z,6.32
2019-03-09T01:46:12.781Z,6.22
2019-03-09T01:47:12.980Z,6.32
2019-03-09T01:48:13.138Z,6.29
2019-03-09T01:49:13.322Z,6.29
2019-03-09T01:50:13.524Z,6.15
2019-03-09T01:51:13.747Z,6.16
2019-03-09T01:52:13.952Z,6.22
2019-03-09T01:53:14.151Z,6.13
2019-03-09T01:54:14.338Z,6.28
2019-03-09T01:55:14.525Z,6.39
2019-03-09T01:56:14.741Z,6.28
2019-03-09T01:57:14.914Z,6.17
2019-03-09T01:58:16.154Z,6.02
2019-03-09T01:59:15.344Z,6.12
2019-03-09T02:00:15.526Z,6.01
2019-03-09T02:01:15.710Z,6.13
2019-03-09T02:02:15.902Z,6.12
2019-03-09T02:03:16.090Z,5.99
2019-03-09T02:04:16.268Z,5.98
2019-03-09T02:05:16.428Z,5.99
2019-03-09T02:06:16.650Z,6.01
2019-03-09T02:07:16.844Z,6.05
2019-03-09T02:08:17.112Z,5.99
2019-03-09T02:09:17.211Z,5.99
2019-03-09T02:10:17.422Z,5.99
2019-03-09T02:11:17.648Z,5.97
2019-03-09T02:12:17.892Z,5.99
2019-03-09T02:13:17.949Z,5.90
2019-03-09T02:14:18.151Z,5.97
2019-03-09T02:15:18.334Z,5.95
2019-03-09T02:16:18.569Z,5.90
2019-03-09T02:17:18.661Z,5.92
2019-03-09T02:18:18.845Z,5.99
2019-03-09T02:19:19.025Z,5.97
2019-03-09T02:20:19.205Z,5.94
2019-03-09T02:21:19.419Z,5.92
2019-03-09T02:22:19.631Z,5.91
2019-03-09T02:23:19.822Z,5.92
2019-03-09T02:24:20.000Z,5.91
2019-03-09T02:25:20.190Z,5.97
2019-03-09T02:26:20.434Z,5.90
2019-03-09T02:27:20.511Z,5.84
2019-03-09T02:28:20.732Z,5.92
2019-03-09T02:29:20.948Z,5.97
2019-03-09T02:30:21.154Z,6.05
2019-03-09T02:31:21.402Z,5.80
2019-03-09T02:32:21.620Z,5.98
2019-03-09T02:33:21.810Z,5.99
2019-03-09T02:34:22.009Z,5.83
2019-03-09T02:35:23.251Z,5.94
2019-03-09T02:36:22.473Z,5.87
2019-03-09T02:37:22.856Z,5.94
2019-03-09T02:38:22.804Z,5.95
2019-03-09T02:39:22.978Z,5.94
2019-03-09T02:40:23.409Z,5.90
2019-03-09T02:41:24.375Z,5.99
2019-03-09T02:42:23.534Z,5.91
2019-03-09T02:43:23.716Z,5.87
2019-03-09T02:44:23.956Z,5.90
2019-03-09T02:45:24.193Z,6.02
2019-03-09T02:46:24.302Z,5.98
2019-03-09T02:47:24.487Z,5.99
2019-03-09T02:48:24.647Z,5.95
2019-03-09T02:49:24.834Z,5.92
2019-03-09T02:50:25.044Z,6.02
2019-03-09T02:51:25.230Z,6.13
2019-03-09T02:52:25.515Z,6.05
2019-03-09T02:53:25.649Z,5.99
2019-03-09T02:54:25.744Z,6.01
2019-03-09T02:55:25.945Z,6.01
2019-03-09T02:56:26.168Z,6.07
2019-03-09T02:57:26.388Z,6.01
2019-03-09T02:58:26.763Z,6.12
2019-03-09T02:59:26.981Z,6.09
2019-03-09T03:00:27.006Z,6.20
2019-03-09T03:01:27.048Z,6.19
2019-03-09T03:02:27.227Z,6.13
2019-03-09T03:03:27.431Z,6.20
2019-03-09T03:04:27.647Z,6.13
2019-03-09T03:05:27.895Z,6.05
2019-03-09T03:06:28.096Z,6.06
2019-03-09T03:07:28.346Z,6.07
2019-03-09T03:08:28.567Z,6.09
2019-03-09T03:09:28.847Z,5.98
2019-03-09T03:10:28.993Z,6.01
2019-03-09T03:11:29.087Z,6.12
2019-03-09T03:12:29.293Z,6.09
2019-03-09T03:13:29.516Z,6.07
2019-03-09T03:14:29.755Z,6.13
2019-03-09T03:15:30.020Z,6.15
2019-03-09T03:16:30.110Z,6.09
2019-03-09T03:17:30.310Z,6.09
2019-03-09T03:18:30.553Z,6.06
2019-03-09T03:19:30.791Z,6.15
2019-03-09T03:20:31.084Z,6.20
2019-03-09T03:21:31.182Z,6.07
2019-03-09T03:22:31.250Z,6.10
2019-03-09T03:23:31.528Z,6.15
2019-03-09T03:24:31.695Z,6.12
2019-03-09T03:25:32.022Z,6.10
2019-03-09T03:26:32.069Z,6.10
2019-03-09T03:27:32.341Z,6.29
2019-03-09T03:28:32.430Z,6.35
2019-03-09T03:29:32.657Z,6.29
2019-03-09T03:30:32.870Z,6.36
2019-03-09T03:31:33.100Z,6.35
2019-03-09T03:32:33.234Z,6.36
2019-03-09T03:33:33.561Z,6.41
2019-03-09T03:34:33.636Z,6.43
2019-03-09T03:35:33.905Z,6.35
2019-03-09T03:36:34.003Z,6.38
2019-03-09T03:37:34.213Z,6.35
2019-03-09T03:38:34.586Z,6.28
2019-03-09T03:39:34.667Z,6.32
2019-03-09T03:40:34.962Z,6.41
2019-03-09T03:41:35.077Z,6.34
2019-03-09T03:42:35.293Z,6.36
2019-03-09T03:43:35.505Z,6.34
2019-03-09T03:44:35.767Z,6.44
2019-03-09T03:45:35.815Z,6.43
2019-03-09T03:46:36.026Z,6.44
2019-03-09T03:47:36.244Z,6.49
2019-03-09T03:48:36.507Z,6.50
2019-03-09T03:49:36.638Z,6.47
2019-03-09T03:50:36.809Z,6.53
2019-03-09T03:51:37.024Z,6.57
2019-03-09T03:52:37.201Z,6.54
2019-03-09T03:53:37.408Z,6.41
2019-03-09T03:54:37.563Z,6.47
2019-03-09T03:55:37.746Z,6.57
2019-03-09T03:56:37.965Z,6.46
2019-03-09T03:57:38.126Z,6.54
2019-03-09T03:58:38.350Z,6.53
2019-03-09T03:59:38.557Z,6.62
2019-03-09T04:00:38.668Z,6.57
2019-03-09T04:01:38.909Z,6.56
2019-03-09T04:02:39.131Z,6.65
2019-03-09T04:03:39.332Z,6.52
2019-03-09T04:04:39.510Z,6.54
2019-03-09T04:05:39.765Z,6.60
2019-03-09T04:06:39.838Z,6.60
2019-03-09T04:07:40.032Z,6.65
2019-03-09T04:08:40.319Z,6.75
2019-03-09T04:09:40.410Z,6.60
2019-03-09T04:10:40.672Z,6.68
2019-03-09T04:11:40.847Z,6.68
2019-03-09T04:12:41.031Z,6.64
2019-03-09T04:13:41.342Z,6.59
2019-03-09T04:14:41.515Z,6.71
2019-03-09T04:15:42.682Z,6.72
2019-03-09T04:16:41.751Z,6.74
2019-03-09T04:17:41.964Z,6.80
2019-03-09T04:18:42.230Z,6.72
2019-03-09T04:19:42.341Z,6.77
2019-03-09T04:20:42.690Z,6.82
2019-03-09T04:21:42.741Z,6.78
2019-03-09T04:22:42.898Z,6.83
2019-03-09T04:23:43.154Z,6.83
2019-03-09T04:24:43.251Z,6.86
2019-03-09T04:25:43.453Z,6.86
2019-03-09T04:26:43.715Z,6.85
2019-03-09T04:27:43.777Z,6.89
2019-03-09T04:28:43.966Z,6.96
2019-03-09T04:29:44.186Z,6.86
2019-03-09T04:30:44.664Z,6.83
2019-03-09T04:31:44.637Z,6.85
2019-03-09T04:32:44.844Z,6.95
2019-03-09T04:33:45.044Z,6.90
2019-03-09T04:34:45.234Z,6.90
2019-03-09T04:35:45.621Z,6.95
2019-03-09T04:36:45.681Z,6.95
2019-03-09T04:37:45.880Z,6.95
2019-03-09T04:38:46.096Z,6.89
2019-03-09T04:39:46.290Z,6.97
2019-03-09T04:40:46.507Z,6.97
2019-03-09T04:41:46.675Z,7.00
2019-03-09T04:42:46.822Z,7.01
2019-03-09T04:43:46.996Z,6.95
2019-03-09T04:44:47.200Z,7.07
2019-03-09T04:45:47.434Z,7.00
2019-03-09T04:46:47.598Z,6.97
2019-03-09T04:47:47.758Z,6.96
2019-03-09T04:48:48.142Z,7.11
2019-03-09T04:49:48.093Z,7.00
2019-03-09T04:50:48.409Z,7.05
2019-03-09T04:51:48.424Z,7.14
2019-03-09T04:52:48.594Z,7.14
2019-03-09T04:53:48.753Z,7.10
2019-03-09T04:54:48.929Z,7.08
2019-03-09T04:55:49.104Z,7.05
2019-03-09T04:56:49.339Z,7.01
2019-03-09T04:57:49.506Z,7.05
2019-03-09T04:58:49.675Z,7.00
2019-03-09T04:59:49.898Z,7.11
2019-03-09T05:00:50.051Z,7.11
2019-03-09T05:01:50.188Z,7.05
2019-03-09T05:02:50.309Z,7.08
2019-03-09T05:03:50.486Z,7.05
2019-03-09T05:04:50.648Z,7.11
2019-03-09T05:05:50.788Z,7.15
2019-03-09T05:06:50.944Z,7.26
2019-03-09T05:07:51.179Z,7.14
2019-03-09T05:08:51.362Z,7.21
2019-03-09T05:09:51.530Z,7.22
2019-03-09T05:10:51.684Z,7.19
2019-03-09T05:11:51.835Z,7.21
2019-03-09T05:12:52.019Z,7.28
2019-03-09T05:13:52.208Z,7.19
2019-03-09T05:14:52.361Z,7.19
2019-03-09T05:15:52.480Z,7.18
2019-03-09T05:16:52.626Z,7.22
2019-03-09T05:17:52.791Z,7.25
2019-03-09T05:18:53.017Z,7.25
2019-03-09T05:19:53.182Z,7.23
2019-03-09T05:20:53.391Z,7.23
2019-03-09T05:21:53.562Z,7.28
2019-03-09T05:22:53.782Z,7.28
2019-03-09T05:23:53.948Z,7.28
2019-03-09T05:24:54.182Z,7.26
2019-03-09T05:25:54.368Z,7.32
2019-03-09T05:26:54.567Z,7.41
2019-03-09T05:27:54.742Z,7.40
2019-03-09T05:28:54.926Z,7.31
2019-03-09T05:29:55.130Z,7.28
2019-03-09T05:30:55.284Z,7.32
2019-03-09T05:31:55.497Z,7.33
2019-03-09T05:32:55.662Z,7.36
2019-03-09T05:33:55.835Z,7.31
2019-03-09T05:34:56.005Z,7.43
2019-03-09T05:35:56.200Z,7.31
2019-03-09T05:36:56.391Z,7.36
2019-03-09T05:37:56.578Z,7.39
2019-03-09T05:38:56.737Z,7.32
2019-03-09T05:39:56.890Z,7.44
2019-03-09T05:40:57.106Z,7.36
2019-03-09T05:41:57.298Z,7.41
2019-03-09T05:42:57.476Z,7.44
2019-03-09T05:43:57.666Z,7.44
2019-03-09T05:44:57.823Z,7.41
2019-03-09T05:45:57.989Z,7.44
2019-03-09T05:46:58.195Z,7.46
2019-03-09T05:47:58.374Z,7.37
2019-03-09T05:48:58.581Z,7.33
2019-03-09T05:49:58.805Z,7.41
2019-03-09T05:50:58.966Z,7.33
2019-03-09T05:51:59.162Z,7.37
2019-03-09T05:52:59.350Z,7.39
2019-03-09T05:53:59.506Z,7.37
2019-03-09T05:54:59.709Z,7.47
2019-03-09T05:55:59.865Z,7.50
2019-03-09T05:57:00.011Z,7.46
2019-03-09T05:58:00.162Z,7.31
2019-03-09T05:59:00.327Z,7.46
2019-03-09T06:00:00.472Z,7.37
2019-03-09T06:01:00.646Z,7.36
2019-03-09T06:02:00.840Z,7.31
2019-03-09T06:03:01.014Z,7.48
2019-03-09T06:04:01.158Z,7.37
2019-03-09T06:05:01.395Z,7.26
2019-03-09T06:06:01.539Z,7.37
2019-03-09T06:07:01.691Z,7.32
2019-03-09T06:08:01.866Z,7.15
2019-03-09T06:09:02.072Z,7.15
2019-03-09T06:10:02.233Z,7.13
2019-03-09T06:11:02.422Z,7.22
2019-03-09T06:12:02.596Z,7.15
2019-03-09T06:13:02.837Z,7.18
2019-03-09T06:14:02.884Z,7.15
2019-03-09T06:15:03.057Z,7.10
2019-03-09T06:16:03.192Z,7.01
2019-03-09T06:17:03.396Z,7.07
2019-03-09T06:18:03.584Z,6.97
2019-03-09T06:19:03.792Z,7.07
2019-03-09T06:20:03.959Z,7.00
2019-03-09T06:21:04.117Z,7.00
2019-03-09T06:22:04.283Z,7.11
2019-03-09T06:23:04.481Z,7.07
2019-03-09T06:24:04.644Z,7.03
2019-03-09T06:25:04.825Z,7.00
2019-03-09T06:26:05.053Z,6.97
2019-03-09T06:27:05.231Z,7.05
2019-03-09T06:28:05.461Z,7.08
2019-03-09T06:29:05.653Z,7.08
2019-03-09T06:30:05.829Z,7.14
2019-03-09T06:31:06.000Z,7.22
2019-03-09T06:32:06.173Z,7.18
2019-03-09T06:33:06.375Z,7.21
2019-03-09T06:34:06.556Z,7.23
2019-03-09T06:35:06.869Z,7.28
2019-03-09T06:36:06.905Z,7.31
2019-03-09T06:37:07.121Z,7.29
2019-03-09T06:38:07.296Z,7.28
2019-03-09T06:39:07.472Z,7.29
2019-03-09T06:40:07.653Z,7.21
2019-03-09T06:41:07.835Z,7.19
2019-03-09T06:42:08.002Z,7.32
2019-03-09T06:43:08.206Z,7.31
2019-03-09T06:44:08.356Z,7.39
2019-03-09T06:45:08.573Z,7.48
2019-03-09T06:46:08.761Z,7.51
2019-03-09T06:47:08.909Z,7.58
2019-03-09T06:48:09.117Z,7.67
2019-03-09T06:49:09.279Z,7.66
2019-03-09T06:50:09.450Z,7.75
2019-03-09T06:51:09.596Z,7.74
2019-03-09T06:52:09.736Z,7.67
2019-03-09T06:53:09.945Z,7.75
2019-03-09T06:54:10.130Z,7.87
2019-03-09T06:55:10.283Z,8.08
2019-03-09T06:56:10.438Z,8.17
2019-03-09T06:57:13.979Z,8.27
2019-03-09T06:58:13.508Z,8.26
2019-03-09T06:59:10.949Z,8.27
2019-03-09T07:00:11.126Z,8.35
2019-03-09T07:01:11.246Z,8.36
2019-03-09T07:02:11.407Z,8.27
2019-03-09T07:03:11.578Z,8.28
2019-03-09T07:04:11.706Z,8.16
2019-03-09T07:05:11.877Z,8.11
2019-03-09T07:06:12.024Z,8.05
2019-03-09T07:07:12.164Z,7.96
2019-03-09T07:08:12.358Z,8.06
2019-03-09T07:09:12.513Z,7.96
2019-03-09T07:10:12.664Z,7.98
2019-03-09T07:11:12.825Z,8.01
2019-03-09T07:12:12.991Z,8.13
2019-03-09T07:13:13.212Z,8.05
2019-03-09T07:14:13.399Z,8.14
2019-03-09T07:15:13.551Z,8.11
2019-03-09T07:16:13.777Z,8.17
2019-03-09T07:17:13.978Z,8.23
2019-03-09T07:18:14.221Z,8.34
2019-03-09T07:19:14.402Z,8.35
2019-03-09T07:20:14.596Z,8.35
2019-03-09T07:21:14.768Z,8.28
2019-03-09T07:22:14.928Z,8.34
2019-03-09T07:23:15.122Z,8.38
2019-03-09T07:24:15.286Z,8.32
2019-03-09T07:25:15.443Z,8.32
2019-03-09T07:26:15.589Z,8.31
2019-03-09T07:27:15.734Z,8.35
2019-03-09T07:28:15.931Z,8.27
2019-03-09T07:29:16.115Z,8.41
2019-03-09T07:30:16.319Z,8.34
2019-03-09T07:31:16.566Z,8.32
2019-03-09T07:32:16.604Z,8.35
2019-03-09T07:33:16.788Z,8.34
2019-03-09T07:34:16.936Z,8.36
2019-03-09T07:35:17.153Z,8.41
2019-03-09T07:36:17.313Z,8.39
2019-03-09T07:37:17.547Z,8.32
2019-03-09T07:38:17.730Z,8.39
2019-03-09T07:39:17.933Z,8.39
2019-03-09T07:40:18.157Z,8.36
2019-03-09T07:41:18.370Z,8.42
2019-03-09T07:42:18.563Z,8.50
2019-03-09T07:43:18.773Z,8.46
2019-03-09T07:44:18.998Z,8.56
2019-03-09T07:45:19.110Z,8.41
2019-03-09T07:46:19.288Z,8.54
2019-03-09T07:47:19.491Z,8.61
2019-03-09T07:48:19.704Z,8.54
2019-03-09T07:49:19.891Z,8.57
2019-03-09T07:50:21.068Z,8.41
2019-03-09T07:51:20.199Z,8.63
2019-03-09T07:52:20.418Z,8.60
2019-03-09T07:53:20.630Z,8.59
2019-03-09T07:54:20.846Z,8.52
2019-03-09T07:55:21.054Z,8.69
2019-03-09T07:56:21.224Z,8.59
2019-03-09T07:57:21.425Z,8.61
2019-03-09T07:58:21.606Z,8.66
2019-03-09T07:59:21.778Z,8.68
2019-03-09T08:00:21.983Z,8.64
2019-03-09T08:01:23.954Z,8.64
2019-03-09T08:02:22.388Z,8.66
2019-03-09T08:03:22.547Z,8.68
2019-03-09T08:04:22.726Z,8.64
2019-03-09T08:05:22.914Z,8.64
2019-03-09T08:06:23.118Z,8.64
2019-03-09T08:07:23.261Z,8.72
2019-03-09T08:08:23.461Z,8.69
2019-03-09T08:09:24.643Z,8.75
2019-03-09T08:10:24.819Z,8.72
2019-03-09T08:11:24.061Z,8.75
2019-03-09T08:12:24.355Z,8.77
2019-03-09T08:13:24.447Z,8.75
2019-03-09T08:14:24.662Z,8.77
2019-03-09T08:15:24.863Z,8.79
2019-03-09T08:16:25.024Z,8.78
2019-03-09T08:17:25.239Z,8.86
2019-03-09T08:18:25.408Z,8.86
2019-03-09T08:19:25.617Z,8.87
2019-03-09T08:20:25.774Z,8.82
2019-03-09T08:21:26.020Z,8.89
2019-03-09T08:22:26.063Z,8.86
2019-03-09T08:23:26.252Z,9.03
2019-03-09T08:24:26.463Z,8.97
2019-03-09T08:25:26.646Z,8.89
2019-03-09T08:26:26.806Z,9.03
2019-03-09T08:27:27.004Z,8.89
2019-03-09T08:28:27.184Z,8.90
2019-03-09T08:29:27.402Z,8.93
2019-03-09T08:30:27.597Z,8.87
2019-03-09T08:31:27.771Z,9.00
2019-03-09T08:32:28.003Z,8.92
2019-03-09T08:33:28.061Z,9.02
2019-03-09T08:34:28.278Z,9.05
2019-03-09T08:35:28.560Z,9.11
2019-03-09T08:36:28.596Z,9.08
2019-03-09T08:37:28.765Z,9.11
2019-03-09T08:38:28.931Z,9.12
2019-03-09T08:39:30.323Z,8.96
2019-03-09T08:40:29.333Z,9.13
2019-03-09T08:41:29.463Z,9.09
2019-03-09T08:42:29.665Z,9.09
2019-03-09T08:43:29.835Z,9.12
2019-03-09T08:44:30.049Z,9.03
2019-03-09T08:45:30.322Z,9.05
2019-03-09T08:46:30.321Z,9.08
2019-03-09T08:47:30.490Z,9.12
2019-03-09T08:48:30.666Z,9.09
2019-03-09T08:49:30.809Z,9.09
2019-03-09T08:50:30.970Z,9.08
2019-03-09T08:51:31.119Z,9.02
2019-03-09T08:52:31.282Z,9.05
2019-03-09T08:53:31.517Z,9.00
2019-03-09T08:54:31.723Z,9.12
2019-03-09T08:55:31.884Z,9.03
2019-03-09T08:56:33.567Z,8.99
2019-03-09T08:57:33.219Z,9.09
2019-03-09T08:58:32.350Z,9.02
2019-03-09T08:59:32.494Z,9.13
2019-03-09T09:00:32.905Z,9.09
2019-03-09T09:01:33.000Z,9.11
2019-03-09T09:02:33.141Z,9.18
2019-03-09T09:03:33.300Z,9.13
2019-03-09T09:04:34.724Z,9.21
2019-03-09T09:05:34.614Z,9.27
2019-03-09T09:06:34.795Z,9.30
2019-03-09T09:07:33.915Z,9.24
2019-03-09T09:08:34.075Z,9.33
2019-03-09T09:09:34.365Z,9.37
2019-03-09T09:10:34.393Z,9.30
2019-03-09T09:11:34.585Z,9.29
2019-03-09T09:12:34.713Z,9.34
2019-03-09T09:13:34.860Z,9.33
2019-03-09T09:14:35.097Z,9.39
2019-03-09T09:15:35.289Z,9.49
2019-03-09T09:16:35.452Z,9.52
2019-03-09T09:17:35.615Z,9.59
2019-03-09T09:18:35.800Z,9.73
2019-03-09T09:19:35.981Z,9.77
2019-03-09T09:20:36.117Z,9.82
2019-03-09T09:21:36.314Z,9.94
2019-03-09T09:22:36.521Z,9.92
2019-03-09T09:23:36.667Z,9.85
2019-03-09T09:24:36.841Z,9.84
2019-03-09T09:25:37.019Z,9.90
2019-03-09T09:26:37.204Z,9.87
2019-03-09T09:27:37.412Z,9.91
2019-03-09T09:28:37.556Z,10.07
2019-03-09T09:29:37.708Z,9.97
2019-03-09T09:30:37.903Z,10.03
2019-03-09T09:31:38.055Z,10.03
2019-03-09T09:32:38.246Z,10.09
2019-03-09T09:33:38.406Z,10.07
2019-03-09T09:34:38.575Z,10.28
2019-03-09T09:35:38.756Z,10.31
2019-03-09T09:36:38.897Z,10.39
2019-03-09T09:37:39.131Z,10.33
2019-03-09T09:38:39.365Z,10.27
2019-03-09T09:39:39.526Z,10.15
2019-03-09T09:40:39.661Z,10.27
2019-03-09T09:41:39.903Z,10.30
2019-03-09T09:42:40.051Z,10.49
2019-03-09T09:43:40.201Z,10.46
2019-03-09T09:44:40.382Z,10.33
2019-03-09T09:45:40.522Z,10.53
2019-03-09T09:46:40.693Z,10.58
2019-03-09T09:47:42.528Z,10.53
2019-03-09T09:48:40.976Z,10.59
2019-03-09T09:49:41.237Z,10.53
2019-03-09T09:50:41.253Z,10.51
2019-03-09T09:51:41.390Z,10.46
2019-03-09T09:52:41.589Z,10.41
2019-03-09T09:53:41.748Z,10.30
2019-03-09T09:54:41.941Z,10.38
2019-03-09T09:55:42.085Z,10.42
2019-03-09T09:56:42.291Z,10.27
2019-03-09T09:57:42.458Z,10.20
2019-03-09T09:58:42.623Z,10.09
2019-03-09T09:59:42.853Z,10.23
2019-03-09T10:00:43.058Z,10.21
2019-03-09T10:01:43.216Z,10.30
2019-03-09T10:02:43.389Z,10.31
2019-03-09T10:03:43.567Z,10.27
2019-03-09T10:04:43.740Z,10.38
2019-03-09T10:05:43.942Z,10.41
2019-03-09T10:06:44.086Z,10.43
2019-03-09T10:07:44.303Z,10.38
2019-03-09T10:08:44.535Z,10.39
2019-03-09T10:09:44.593Z,10.28
2019-03-09T10:10:44.787Z,10.34
2019-03-09T10:11:44.989Z,10.41
2019-03-09T10:12:45.149Z,10.30
2019-03-09T10:13:45.320Z,10.38
2019-03-09T10:14:45.458Z,10.21
2019-03-09T10:15:45.623Z,10.27
2019-03-09T10:16:45.780Z,10.24
2019-03-09T10:17:45.947Z,10.28
2019-03-09T10:18:46.120Z,10.36
2019-03-09T10:19:46.277Z,10.28
2019-03-09T10:20:46.449Z,10.18
2019-03-09T10:21:46.607Z,10.33
2019-03-09T10:22:46.763Z,10.17
2019-03-09T10:23:46.940Z,10.15
2019-03-09T10:24:47.123Z,10.21
2019-03-09T10:25:47.293Z,10.24
2019-03-09T10:26:47.464Z,10.38
2019-03-09T10:27:47.633Z,10.36
2019-03-09T10:28:47.839Z,10.39
2019-03-09T10:29:48.026Z,10.58
2019-03-09T10:30:48.200Z,10.64
2019-03-09T10:31:48.372Z,10.77
2019-03-09T10:32:48.562Z,10.92
2019-03-09T10:33:48.764Z,11.00
2019-03-09T10:34:48.916Z,11.07
2019-03-09T10:35:49.068Z,10.95
2019-03-09T10:36:49.223Z,10.98
2019-03-09T10:37:49.402Z,11.02
2019-03-09T10:38:49.624Z,11.00
2019-03-09T10:39:49.778Z,11.13
2019-03-09T10:40:50.962Z,11.27
2019-03-09T10:41:50.120Z,11.16
2019-03-09T10:42:50.272Z,11.02
2019-03-09T10:43:50.521Z,11.15
2019-03-09T10:44:50.560Z,11.05
2019-03-09T10:45:50.756Z,11.00
2019-03-09T10:46:51.039Z,11.04
2019-03-09T10:47:51.082Z,10.94
2019-03-09T10:48:51.234Z,10.89
2019-03-09T10:49:51.392Z,10.90
2019-03-09T10:50:51.569Z,10.77
2019-03-09T10:51:51.769Z,10.87
2019-03-09T10:52:51.934Z,10.71
2019-03-09T10:53:52.104Z,10.69
2019-03-09T10:54:52.240Z,10.67
2019-03-09T10:55:52.398Z,10.75
2019-03-09T10:56:52.616Z,10.72
2019-03-09T10:57:52.782Z,10.67
2019-03-09T10:58:52.983Z,10.75
2019-03-09T10:59:53.133Z,10.72
2019-03-09T11:00:53.283Z,10.59
2019-03-09T11:01:53.435Z,10.61
2019-03-09T11:02:53.595Z,10.58
2019-03-09T11:03:53.764Z,10.57
2019-03-09T11:04:53.956Z,10.64
2019-03-09T11:05:54.150Z,10.57
2019-03-09T11:06:54.331Z,10.49
2019-03-09T11:07:55.505Z,10.43
2019-03-09T11:08:54.646Z,10.49
2019-03-09T11:09:54.833Z,10.64
2019-03-09T11:10:55.032Z,10.67
2019-03-09T11:11:55.233Z,10.62
2019-03-09T11:12:55.384Z,10.69
2019-03-09T11:13:55.563Z,10.59
2019-03-09T11:14:55.741Z,10.72
2019-03-09T11:15:55.908Z,10.77
2019-03-09T11:16:56.102Z,10.71
2019-03-09T11:17:56.318Z,10.71
2019-03-09T11:18:56.494Z,10.71
2019-03-09T11:19:56.676Z,10.68
2019-03-09T11:20:56.828Z,10.72
2019-03-09T11:21:56.998Z,10.76
2019-03-09T11:22:57.188Z,10.71
2019-03-09T11:23:57.394Z,10.68
2019-03-09T11:25:03.381Z,10.84
2019-03-09T11:25:59.702Z,10.72
2019-03-09T11:26:57.928Z,10.87
2019-03-09T11:27:58.105Z,10.84
2019-03-09T11:28:58.311Z,10.98
2019-03-09T11:29:58.491Z,10.89
2019-03-09T11:30:58.682Z,11.07
2019-03-09T11:31:58.900Z,11.02
2019-03-09T11:32:59.091Z,11.10
2019-03-09T11:33:59.253Z,11.10
2019-03-09T11:34:59.398Z,11.12
2019-03-09T11:35:59.606Z,11.27
2019-03-09T11:36:59.788Z,11.26
2019-03-09T11:37:59.980Z,11.43
2019-03-09T11:39:00.138Z,11.35
2019-03-09T11:40:00.416Z,11.58
2019-03-09T11:41:00.947Z,11.60
2019-03-09T11:42:01.676Z,11.67
2019-03-09T11:43:00.804Z,11.85
2019-03-09T11:44:00.975Z,11.80
2019-03-09T11:45:01.135Z,11.76
2019-03-09T11:46:01.324Z,11.59
2019-03-09T11:47:01.508Z,11.65
2019-03-09T11:48:01.693Z,11.70
2019-03-09T11:49:02.006Z,11.74
2019-03-09T11:50:02.067Z,11.68
2019-03-09T11:51:02.254Z,11.71
2019-03-09T11:52:02.444Z,11.70
2019-03-09T11:53:02.624Z,11.76
2019-03-09T11:54:02.820Z,11.80
2019-03-09T11:55:02.989Z,11.62
2019-03-09T11:56:03.199Z,11.58
2019-03-09T11:57:03.373Z,11.81
2019-03-09T11:58:03.582Z,11.95
2019-03-09T11:59:03.897Z,11.59
2019-03-09T12:00:03.927Z,11.59
2019-03-09T12:01:04.086Z,11.74
2019-03-09T12:02:04.258Z,11.86
2019-03-09T12:03:04.451Z,11.96
2019-03-09T12:04:04.592Z,12.10
2019-03-09T12:05:04.763Z,12.21
2019-03-09T12:06:04.991Z,12.47
2019-03-09T12:07:05.215Z,12.50
2019-03-09T12:08:05.383Z,12.30
2019-03-09T12:09:05.579Z,12.18
2019-03-09T12:10:05.753Z,12.43
2019-03-09T12:11:05.932Z,12.32
2019-03-09T12:12:06.095Z,12.11
2019-03-09T12:13:06.275Z,11.85
2019-03-09T12:14:06.494Z,12.18
2019-03-09T12:15:07.637Z,12.30
2019-03-09T12:16:06.779Z,12.63
2019-03-09T12:17:12.499Z,12.81
2019-03-09T12:18:09.108Z,13.45
2019-03-09T12:19:07.269Z,13.26
2019-03-09T12:20:07.467Z,13.06
2019-03-09T12:21:07.650Z,12.81
2019-03-09T12:22:07.861Z,12.91
2019-03-09T12:23:08.014Z,12.94
2019-03-09T12:24:16.024Z,12.69
2019-03-09T12:25:10.314Z,12.57
2019-03-09T12:26:08.470Z,12.62
2019-03-09T12:27:08.609Z,13.24
2019-03-09T12:28:08.758Z,13.76
2019-03-09T12:29:08.934Z,13.85
2019-03-09T12:30:09.101Z,14.01
2019-03-09T12:31:09.298Z,13.50
2019-03-09T12:32:09.554Z,13.60
2019-03-09T12:33:09.587Z,13.03
2019-03-09T12:34:09.777Z,12.78
2019-03-09T12:35:09.947Z,13.65
2019-03-09T12:36:10.216Z,13.70
2019-03-09T12:37:10.250Z,13.54
2019-03-09T12:38:10.430Z,13.67
2019-03-09T12:39:10.607Z,14.26
2019-03-09T12:40:10.794Z,14.62
2019-03-09T12:41:10.996Z,15.23
2019-03-09T12:42:11.184Z,14.16
2019-03-09T12:43:11.377Z,14.05
2019-03-09T12:44:11.542Z,13.68
2019-03-09T12:45:11.743Z,14.11
2019-03-09T12:46:11.911Z,13.57
2019-03-09T12:47:12.130Z,13.54
2019-03-09T12:48:12.352Z,12.87
2019-03-09T12:49:12.539Z,12.62
2019-03-09T12:50:12.714Z,12.35
2019-03-09T12:51:12.866Z,12.21
2019-03-09T12:52:13.080Z,12.23
2019-03-09T12:53:14.236Z,12.18
2019-03-09T12:54:14.561Z,12.25
2019-03-09T12:55:14.713Z,12.43
2019-03-09T12:56:13.879Z,12.44
2019-03-09T12:57:14.082Z,12.35
2019-03-09T12:58:14.328Z,12.44
2019-03-09T12:59:14.445Z,12.62
2019-03-09T13:00:14.635Z,12.66
2019-03-09T13:01:14.901Z,12.84
2019-03-09T13:02:14.998Z,13.06
2019-03-09T13:03:15.231Z,13.16
2019-03-09T13:04:15.399Z,13.70
2019-03-09T13:05:15.566Z,13.89
2019-03-09T13:06:15.764Z,13.85
2019-03-09T13:07:15.930Z,13.60
2019-03-09T13:08:16.163Z,13.49
2019-03-09T13:09:16.348Z,13.01
2019-03-09T13:10:16.514Z,12.50
2019-03-09T13:11:16.724Z,12.55
2019-03-09T13:12:16.891Z,12.57
2019-03-09T13:13:17.087Z,13.26